sensor_id;sensor_type;location;lat;lon;timestamp;P1;durP1;ratioP1;P2;durP2;ratioP2
70576;SDS011;58138;43.138;24.702;2023-04-06T00:01:26;10.35;;;7.88;;
70576;SDS011;58138;43.138;24.702;2023-04-06T00:03:52;10.40;;;8.43;;
70576;SDS011;58138;43.138;24.702;2023-04-06T00:06:18;11.70;;;8.43;;
70576;SDS011;58138;43.138;24.702;2023-04-06T00:08:43;10.10;;;8.20;;
70576;SDS011;58138;43.138;24.702;2023-04-06T00:11:09;11.73;;;9.10;;
70576;SDS011;58138;43.138;24.702;2023-04-06T00:13:35;13.23;;;9.75;;
70576;SDS011;58138;43.138;24.702;2023-04-06T00:16:00;10.32;;;8.60;;
70576;SDS011;58138;43.138;24.702;2023-04-06T00:18:26;11.10;;;8.95;;
70576;SDS011;58138;43.138;24.702;2023-04-06T00:20:52;11.32;;;9.48;;
70576;SDS011;58138;43.138;24.702;2023-04-06T00:23:17;12.85;;;9.98;;
70576;SDS011;58138;43.138;24.702;2023-04-06T00:25:43;12.90;;;9.93;;
70576;SDS011;58138;43.138;24.702;2023-04-06T00:28:08;11.60;;;9.80;;
70576;SDS011;58138;43.138;24.702;2023-04-06T00:30:34;11.13;;;8.40;;
70576;SDS011;58138;43.138;24.702;2023-04-06T00:33:00;11.02;;;7.82;;
70576;SDS011;58138;43.138;24.702;2023-04-06T00:35:25;11.02;;;9.43;;
70576;SDS011;58138;43.138;24.702;2023-04-06T00:37:51;10.27;;;8.27;;
70576;SDS011;58138;43.138;24.702;2023-04-06T00:40:17;12.23;;;8.95;;
70576;SDS011;58138;43.138;24.702;2023-04-06T00:42:42;8.65;;;6.70;;
70576;SDS011;58138;43.138;24.702;2023-04-06T00:45:08;16.98;;;11.90;;
70576;SDS011;58138;43.138;24.702;2023-04-06T00:47:34;12.20;;;9.85;;
70576;SDS011;58138;43.138;24.702;2023-04-06T00:50:00;14.68;;;9.82;;
70576;SDS011;58138;43.138;24.702;2023-04-06T00:52:26;11.35;;;9.85;;
70576;SDS011;58138;43.138;24.702;2023-04-06T00:54:51;12.43;;;9.93;;
70576;SDS011;58138;43.138;24.702;2023-04-06T00:57:17;12.38;;;9.98;;
70576;SDS011;58138;43.138;24.702;2023-04-06T00:59:43;11.93;;;8.07;;
70576;SDS011;58138;43.138;24.702;2023-04-06T01:02:09;10.50;;;9.32;;
70576;SDS011;58138;43.138;24.702;2023-04-06T01:04:34;13.73;;;10.90;;
70576;SDS011;58138;43.138;24.702;2023-04-06T01:07:00;13.10;;;10.25;;
70576;SDS011;58138;43.138;24.702;2023-04-06T01:09:29;11.05;;;8.68;;
70576;SDS011;58138;43.138;24.702;2023-04-06T01:11:55;12.85;;;9.85;;
70576;SDS011;58138;43.138;24.702;2023-04-06T01:14:22;11.88;;;10.15;;
70576;SDS011;58138;43.138;24.702;2023-04-06T01:16:48;14.98;;;10.05;;
70576;SDS011;58138;43.138;24.702;2023-04-06T01:19:14;15.55;;;10.38;;
70576;SDS011;58138;43.138;24.702;2023-04-06T01:21:40;12.45;;;9.57;;
70576;SDS011;58138;43.138;24.702;2023-04-06T01:24:06;11.68;;;9.70;;
70576;SDS011;58138;43.138;24.702;2023-04-06T01:26:33;13.52;;;10.48;;
70576;SDS011;58138;43.138;24.702;2023-04-06T01:29:00;12.60;;;9.13;;
70576;SDS011;58138;43.138;24.702;2023-04-06T01:31:26;13.40;;;10.90;;
70576;SDS011;58138;43.138;24.702;2023-04-06T01:33:52;14.63;;;9.35;;
70576;SDS011;58138;43.138;24.702;2023-04-06T01:36:18;11.07;;;9.18;;
70576;SDS011;58138;43.138;24.702;2023-04-06T01:38:44;14.13;;;11.55;;
70576;SDS011;58138;43.138;24.702;2023-04-06T01:41:09;14.27;;;9.88;;
70576;SDS011;58138;43.138;24.702;2023-04-06T01:43:35;14.30;;;10.00;;
70576;SDS011;58138;43.138;24.702;2023-04-06T01:46:01;11.90;;;9.90;;
70576;SDS011;58138;43.138;24.702;2023-04-06T01:48:27;12.77;;;10.40;;
70576;SDS011;58138;43.138;24.702;2023-04-06T01:50:52;11.57;;;9.38;;
70576;SDS011;58138;43.138;24.702;2023-04-06T01:53:18;14.13;;;11.13;;
70576;SDS011;58138;43.138;24.702;2023-04-06T01:55:44;12.25;;;10.05;;
70576;SDS011;58138;43.138;24.702;2023-04-06T01:58:10;12.77;;;10.50;;
70576;SDS011;58138;43.138;24.702;2023-04-06T02:00:36;12.30;;;9.63;;
70576;SDS011;58138;43.138;24.702;2023-04-06T02:03:02;11.80;;;10.15;;
70576;SDS011;58138;43.138;24.702;2023-04-06T02:05:29;13.70;;;10.80;;
70576;SDS011;58138;43.138;24.702;2023-04-06T02:07:55;14.13;;;10.73;;
70576;SDS011;58138;43.138;24.702;2023-04-06T02:10:21;14.20;;;10.85;;
70576;SDS011;58138;43.138;24.702;2023-04-06T02:12:47;12.57;;;9.52;;
70576;SDS011;58138;43.138;24.702;2023-04-06T02:15:13;13.57;;;10.43;;
70576;SDS011;58138;43.138;24.702;2023-04-06T02:17:39;13.07;;;10.63;;
70576;SDS011;58138;43.138;24.702;2023-04-06T02:20:05;14.32;;;10.30;;
70576;SDS011;58138;43.138;24.702;2023-04-06T02:22:31;14.05;;;10.45;;
70576;SDS011;58138;43.138;24.702;2023-04-06T02:24:57;12.52;;;8.60;;
70576;SDS011;58138;43.138;24.702;2023-04-06T02:27:22;12.82;;;9.85;;
70576;SDS011;58138;43.138;24.702;2023-04-06T02:29:49;13.48;;;9.82;;
70576;SDS011;58138;43.138;24.702;2023-04-06T02:32:14;11.77;;;9.43;;
70576;SDS011;58138;43.138;24.702;2023-04-06T02:34:40;11.85;;;9.80;;
70576;SDS011;58138;43.138;24.702;2023-04-06T02:37:06;12.90;;;10.45;;
70576;SDS011;58138;43.138;24.702;2023-04-06T02:39:31;9.10;;;6.78;;
70576;SDS011;58138;43.138;24.702;2023-04-06T02:41:57;11.05;;;9.02;;
70576;SDS011;58138;43.138;24.702;2023-04-06T02:44:22;13.85;;;10.35;;
70576;SDS011;58138;43.138;24.702;2023-04-06T02:46:48;10.93;;;9.23;;
70576;SDS011;58138;43.138;24.702;2023-04-06T02:49:13;12.30;;;9.27;;
70576;SDS011;58138;43.138;24.702;2023-04-06T02:51:39;10.73;;;8.43;;
70576;SDS011;58138;43.138;24.702;2023-04-06T02:54:05;12.10;;;8.00;;
70576;SDS011;58138;43.138;24.702;2023-04-06T02:56:30;11.27;;;8.25;;
70576;SDS011;58138;43.138;24.702;2023-04-06T02:58:56;14.30;;;10.40;;
70576;SDS011;58138;43.138;24.702;2023-04-06T03:01:22;7.18;;;3.58;;
70576;SDS011;58138;43.138;24.702;2023-04-06T03:03:47;11.98;;;7.32;;
70576;SDS011;58138;43.138;24.702;2023-04-06T03:06:13;8.05;;;6.05;;
70576;SDS011;58138;43.138;24.702;2023-04-06T03:08:38;5.30;;;3.88;;
70576;SDS011;58138;43.138;24.702;2023-04-06T03:11:04;18.02;;;12.15;;
70576;SDS011;58138;43.138;24.702;2023-04-06T03:13:30;19.50;;;12.10;;
70576;SDS011;58138;43.138;24.702;2023-04-06T03:15:56;19.52;;;13.45;;
70576;SDS011;58138;43.138;24.702;2023-04-06T03:18:22;18.30;;;13.13;;
70576;SDS011;58138;43.138;24.702;2023-04-06T03:20:48;12.38;;;9.20;;
70576;SDS011;58138;43.138;24.702;2023-04-06T03:23:13;14.55;;;10.82;;
70576;SDS011;58138;43.138;24.702;2023-04-06T03:25:39;15.45;;;12.45;;
70576;SDS011;58138;43.138;24.702;2023-04-06T03:28:05;13.55;;;10.32;;
70576;SDS011;58138;43.138;24.702;2023-04-06T03:30:30;8.65;;;7.15;;
70576;SDS011;58138;43.138;24.702;2023-04-06T03:32:56;12.23;;;5.78;;
70576;SDS011;58138;43.138;24.702;2023-04-06T03:35:22;20.23;;;10.90;;
70576;SDS011;58138;43.138;24.702;2023-04-06T03:37:49;12.25;;;9.05;;
70576;SDS011;58138;43.138;24.702;2023-04-06T03:40:15;20.88;;;14.55;;
70576;SDS011;58138;43.138;24.702;2023-04-06T03:42:41;15.35;;;10.98;;
70576;SDS011;58138;43.138;24.702;2023-04-06T03:45:06;15.98;;;12.70;;
70576;SDS011;58138;43.138;24.702;2023-04-06T03:47:32;19.50;;;12.02;;
70576;SDS011;58138;43.138;24.702;2023-04-06T03:49:58;13.77;;;10.40;;
70576;SDS011;58138;43.138;24.702;2023-04-06T03:52:24;11.68;;;8.65;;
70576;SDS011;58138;43.138;24.702;2023-04-06T03:54:49;14.55;;;9.68;;
70576;SDS011;58138;43.138;24.702;2023-04-06T03:57:15;13.32;;;9.90;;
70576;SDS011;58138;43.138;24.702;2023-04-06T03:59:40;13.25;;;7.97;;
70576;SDS011;58138;43.138;24.702;2023-04-06T04:02:06;11.23;;;8.75;;
70576;SDS011;58138;43.138;24.702;2023-04-06T04:04:32;9.60;;;7.03;;
70576;SDS011;58138;43.138;24.702;2023-04-06T04:06:57;14.27;;;10.77;;
70576;SDS011;58138;43.138;24.702;2023-04-06T04:09:23;16.42;;;10.70;;
70576;SDS011;58138;43.138;24.702;2023-04-06T04:11:48;13.23;;;10.45;;
70576;SDS011;58138;43.138;24.702;2023-04-06T04:14:14;16.30;;;11.60;;
70576;SDS011;58138;43.138;24.702;2023-04-06T04:16:40;13.55;;;10.35;;
70576;SDS011;58138;43.138;24.702;2023-04-06T04:19:06;13.43;;;8.25;;
70576;SDS011;58138;43.138;24.702;2023-04-06T04:21:32;14.23;;;8.85;;
70576;SDS011;58138;43.138;24.702;2023-04-06T04:23:58;14.25;;;9.88;;
70576;SDS011;58138;43.138;24.702;2023-04-06T04:26:23;20.27;;;14.55;;
70576;SDS011;58138;43.138;24.702;2023-04-06T04:28:49;25.05;;;17.02;;
70576;SDS011;58138;43.138;24.702;2023-04-06T04:31:15;17.13;;;12.73;;
70576;SDS011;58138;43.138;24.702;2023-04-06T04:33:43;12.50;;;10.25;;
70576;SDS011;58138;43.138;24.702;2023-04-06T04:36:09;19.73;;;11.25;;
70576;SDS011;58138;43.138;24.702;2023-04-06T04:38:35;23.30;;;12.55;;
70576;SDS011;58138;43.138;24.702;2023-04-06T04:41:01;13.05;;;7.38;;
70576;SDS011;58138;43.138;24.702;2023-04-06T04:43:26;7.28;;;3.75;;
70576;SDS011;58138;43.138;24.702;2023-04-06T04:45:52;18.27;;;13.18;;
70576;SDS011;58138;43.138;24.702;2023-04-06T04:48:17;15.27;;;8.57;;
70576;SDS011;58138;43.138;24.702;2023-04-06T04:50:43;16.08;;;9.52;;
70576;SDS011;58138;43.138;24.702;2023-04-06T04:53:09;14.05;;;9.98;;
70576;SDS011;58138;43.138;24.702;2023-04-06T04:55:35;16.15;;;11.95;;
70576;SDS011;58138;43.138;24.702;2023-04-06T04:58:00;15.43;;;11.18;;
70576;SDS011;58138;43.138;24.702;2023-04-06T05:00:27;16.83;;;11.23;;
70576;SDS011;58138;43.138;24.702;2023-04-06T05:02:53;20.92;;;11.10;;
70576;SDS011;58138;43.138;24.702;2023-04-06T05:05:18;16.42;;;12.50;;
70576;SDS011;58138;43.138;24.702;2023-04-06T05:07:44;16.35;;;10.20;;
70576;SDS011;58138;43.138;24.702;2023-04-06T05:10:10;19.65;;;10.68;;
70576;SDS011;58138;43.138;24.702;2023-04-06T05:12:35;16.42;;;11.20;;
70576;SDS011;58138;43.138;24.702;2023-04-06T05:15:01;15.98;;;11.52;;
70576;SDS011;58138;43.138;24.702;2023-04-06T05:17:26;12.95;;;9.60;;
70576;SDS011;58138;43.138;24.702;2023-04-06T05:19:52;13.70;;;10.68;;
70576;SDS011;58138;43.138;24.702;2023-04-06T05:22:18;8.80;;;7.28;;
70576;SDS011;58138;43.138;24.702;2023-04-06T05:24:43;12.23;;;9.50;;
70576;SDS011;58138;43.138;24.702;2023-04-06T05:27:09;12.98;;;4.72;;
70576;SDS011;58138;43.138;24.702;2023-04-06T05:29:35;14.85;;;9.23;;
70576;SDS011;58138;43.138;24.702;2023-04-06T05:32:01;13.45;;;8.82;;
70576;SDS011;58138;43.138;24.702;2023-04-06T05:34:26;12.50;;;10.25;;
70576;SDS011;58138;43.138;24.702;2023-04-06T05:36:52;8.85;;;6.43;;
70576;SDS011;58138;43.138;24.702;2023-04-06T05:39:18;11.27;;;8.95;;
70576;SDS011;58138;43.138;24.702;2023-04-06T05:41:43;9.55;;;6.40;;
70576;SDS011;58138;43.138;24.702;2023-04-06T05:44:09;14.23;;;10.23;;
70576;SDS011;58138;43.138;24.702;2023-04-06T05:46:35;15.50;;;10.63;;
70576;SDS011;58138;43.138;24.702;2023-04-06T05:49:00;11.77;;;8.55;;
70576;SDS011;58138;43.138;24.702;2023-04-06T05:51:26;15.15;;;10.48;;
70576;SDS011;58138;43.138;24.702;2023-04-06T05:53:52;21.42;;;12.10;;
70576;SDS011;58138;43.138;24.702;2023-04-06T05:56:17;13.23;;;9.52;;
70576;SDS011;58138;43.138;24.702;2023-04-06T05:58:43;12.90;;;10.02;;
70576;SDS011;58138;43.138;24.702;2023-04-06T06:01:09;14.30;;;8.43;;
70576;SDS011;58138;43.138;24.702;2023-04-06T06:03:35;15.35;;;9.15;;
70576;SDS011;58138;43.138;24.702;2023-04-06T06:06:03;15.60;;;10.20;;
70576;SDS011;58138;43.138;24.702;2023-04-06T06:08:29;13.18;;;9.25;;
70576;SDS011;58138;43.138;24.702;2023-04-06T06:10:55;11.75;;;9.05;;
70576;SDS011;58138;43.138;24.702;2023-04-06T06:13:21;15.00;;;9.00;;
70576;SDS011;58138;43.138;24.702;2023-04-06T06:15:47;11.45;;;8.70;;
70576;SDS011;58138;43.138;24.702;2023-04-06T06:18:13;12.82;;;9.48;;
70576;SDS011;58138;43.138;24.702;2023-04-06T06:20:39;13.35;;;8.23;;
70576;SDS011;58138;43.138;24.702;2023-04-06T06:23:05;17.00;;;10.85;;
70576;SDS011;58138;43.138;24.702;2023-04-06T06:25:30;12.38;;;8.63;;
70576;SDS011;58138;43.138;24.702;2023-04-06T06:27:56;31.27;;;18.38;;
70576;SDS011;58138;43.138;24.702;2023-04-06T06:30:22;9.88;;;7.97;;
70576;SDS011;58138;43.138;24.702;2023-04-06T06:32:48;11.50;;;9.63;;
70576;SDS011;58138;43.138;24.702;2023-04-06T06:35:13;15.25;;;9.40;;
70576;SDS011;58138;43.138;24.702;2023-04-06T06:37:39;10.07;;;7.55;;
70576;SDS011;58138;43.138;24.702;2023-04-06T06:40:05;11.68;;;6.45;;
70576;SDS011;58138;43.138;24.702;2023-04-06T06:42:31;12.05;;;8.77;;
70576;SDS011;58138;43.138;24.702;2023-04-06T06:44:56;9.20;;;6.68;;
70576;SDS011;58138;43.138;24.702;2023-04-06T06:47:22;14.25;;;9.45;;
70576;SDS011;58138;43.138;24.702;2023-04-06T06:49:48;12.20;;;9.40;;
70576;SDS011;58138;43.138;24.702;2023-04-06T06:52:13;11.68;;;8.80;;
70576;SDS011;58138;43.138;24.702;2023-04-06T06:54:39;8.52;;;6.15;;
70576;SDS011;58138;43.138;24.702;2023-04-06T06:57:05;10.07;;;7.82;;
70576;SDS011;58138;43.138;24.702;2023-04-06T06:59:30;5.45;;;4.03;;
70576;SDS011;58138;43.138;24.702;2023-04-06T07:01:56;12.20;;;7.00;;
70576;SDS011;58138;43.138;24.702;2023-04-06T07:04:21;12.30;;;8.95;;
70576;SDS011;58138;43.138;24.702;2023-04-06T07:06:47;15.05;;;9.85;;
70576;SDS011;58138;43.138;24.702;2023-04-06T07:09:13;10.77;;;8.70;;
70576;SDS011;58138;43.138;24.702;2023-04-06T07:11:38;13.27;;;7.93;;
70576;SDS011;58138;43.138;24.702;2023-04-06T07:14:04;10.60;;;6.97;;
70576;SDS011;58138;43.138;24.702;2023-04-06T07:16:30;13.80;;;9.82;;
70576;SDS011;58138;43.138;24.702;2023-04-06T07:18:55;16.02;;;10.48;;
70576;SDS011;58138;43.138;24.702;2023-04-06T07:21:21;14.43;;;10.55;;
70576;SDS011;58138;43.138;24.702;2023-04-06T07:23:47;12.93;;;9.57;;
70576;SDS011;58138;43.138;24.702;2023-04-06T07:26:13;15.63;;;10.80;;
70576;SDS011;58138;43.138;24.702;2023-04-06T07:28:38;10.52;;;8.15;;
70576;SDS011;58138;43.138;24.702;2023-04-06T07:31:04;12.73;;;9.40;;
70576;SDS011;58138;43.138;24.702;2023-04-06T07:33:30;13.73;;;9.40;;
70576;SDS011;58138;43.138;24.702;2023-04-06T07:35:56;15.25;;;10.05;;
70576;SDS011;58138;43.138;24.702;2023-04-06T07:38:22;13.75;;;8.57;;
70576;SDS011;58138;43.138;24.702;2023-04-06T07:40:47;11.52;;;7.60;;
70576;SDS011;58138;43.138;24.702;2023-04-06T07:43:13;13.57;;;10.00;;
70576;SDS011;58138;43.138;24.702;2023-04-06T07:45:38;14.48;;;9.93;;
70576;SDS011;58138;43.138;24.702;2023-04-06T07:48:04;16.27;;;8.90;;
70576;SDS011;58138;43.138;24.702;2023-04-06T07:50:30;11.43;;;8.48;;
70576;SDS011;58138;43.138;24.702;2023-04-06T07:52:55;14.50;;;9.93;;
70576;SDS011;58138;43.138;24.702;2023-04-06T07:55:22;15.75;;;11.00;;
70576;SDS011;58138;43.138;24.702;2023-04-06T07:57:48;11.40;;;9.05;;
70576;SDS011;58138;43.138;24.702;2023-04-06T08:00:14;12.75;;;8.45;;
70576;SDS011;58138;43.138;24.702;2023-04-06T08:02:39;9.50;;;6.50;;
70576;SDS011;58138;43.138;24.702;2023-04-06T08:05:05;12.82;;;8.10;;
70576;SDS011;58138;43.138;24.702;2023-04-06T08:07:31;12.75;;;8.38;;
70576;SDS011;58138;43.138;24.702;2023-04-06T08:09:56;11.30;;;8.23;;
70576;SDS011;58138;43.138;24.702;2023-04-06T08:12:22;12.23;;;8.18;;
70576;SDS011;58138;43.138;24.702;2023-04-06T08:14:48;12.63;;;9.10;;
70576;SDS011;58138;43.138;24.702;2023-04-06T08:17:13;12.15;;;10.20;;
70576;SDS011;58138;43.138;24.702;2023-04-06T08:19:41;14.30;;;8.70;;
70576;SDS011;58138;43.138;24.702;2023-04-06T08:22:07;12.23;;;8.05;;
70576;SDS011;58138;43.138;24.702;2023-04-06T08:24:33;11.10;;;7.70;;
70576;SDS011;58138;43.138;24.702;2023-04-06T08:26:59;13.52;;;8.55;;
70576;SDS011;58138;43.138;24.702;2023-04-06T08:29:24;18.83;;;8.07;;
70576;SDS011;58138;43.138;24.702;2023-04-06T08:31:50;11.60;;;7.07;;
70576;SDS011;58138;43.138;24.702;2023-04-06T08:34:15;14.73;;;7.38;;
70576;SDS011;58138;43.138;24.702;2023-04-06T08:36:41;14.70;;;9.32;;
70576;SDS011;58138;43.138;24.702;2023-04-06T08:39:07;17.52;;;10.63;;
70576;SDS011;58138;43.138;24.702;2023-04-06T08:41:34;15.13;;;8.90;;
70576;SDS011;58138;43.138;24.702;2023-04-06T08:44:00;12.98;;;7.97;;
70576;SDS011;58138;43.138;24.702;2023-04-06T08:46:26;13.02;;;8.20;;
70576;SDS011;58138;43.138;24.702;2023-04-06T08:48:55;8.02;;;5.13;;
70576;SDS011;58138;43.138;24.702;2023-04-06T08:51:22;10.48;;;7.72;;
70576;SDS011;58138;43.138;24.702;2023-04-06T08:53:55;12.05;;;7.97;;
70576;SDS011;58138;43.138;24.702;2023-04-06T08:56:23;7.20;;;5.05;;
70576;SDS011;58138;43.138;24.702;2023-04-06T08:58:50;12.00;;;7.18;;
70576;SDS011;58138;43.138;24.702;2023-04-06T09:01:17;9.77;;;6.60;;
70576;SDS011;58138;43.138;24.702;2023-04-06T09:03:43;11.60;;;6.40;;
70576;SDS011;58138;43.138;24.702;2023-04-06T09:06:09;10.10;;;6.30;;
70576;SDS011;58138;43.138;24.702;2023-04-06T09:08:37;11.68;;;8.13;;
70576;SDS011;58138;43.138;24.702;2023-04-06T09:11:05;14.60;;;8.88;;
70576;SDS011;58138;43.138;24.702;2023-04-06T09:13:31;15.00;;;5.75;;
70576;SDS011;58138;43.138;24.702;2023-04-06T09:16:03;13.68;;;7.65;;
70576;SDS011;58138;43.138;24.702;2023-04-06T09:18:30;12.38;;;8.52;;
70576;SDS011;58138;43.138;24.702;2023-04-06T09:20:57;14.93;;;9.43;;
70576;SDS011;58138;43.138;24.702;2023-04-06T09:23:23;12.55;;;8.48;;
70576;SDS011;58138;43.138;24.702;2023-04-06T09:25:49;14.25;;;9.98;;
70576;SDS011;58138;43.138;24.702;2023-04-06T09:28:15;13.95;;;8.60;;
70576;SDS011;58138;43.138;24.702;2023-04-06T09:30:47;10.63;;;8.43;;
70576;SDS011;58138;43.138;24.702;2023-04-06T09:33:21;12.10;;;8.07;;
70576;SDS011;58138;43.138;24.702;2023-04-06T09:35:50;10.88;;;7.43;;
70576;SDS011;58138;43.138;24.702;2023-04-06T09:38:16;6.30;;;4.93;;
70576;SDS011;58138;43.138;24.702;2023-04-06T09:40:51;9.52;;;6.93;;
70576;SDS011;58138;43.138;24.702;2023-04-06T09:43:23;12.85;;;6.45;;
70576;SDS011;58138;43.138;24.702;2023-04-06T09:45:50;8.23;;;5.70;;
70576;SDS011;58138;43.138;24.702;2023-04-06T09:48:16;10.80;;;6.53;;
70576;SDS011;58138;43.138;24.702;2023-04-06T09:50:43;10.48;;;7.10;;
70576;SDS011;58138;43.138;24.702;2023-04-06T09:53:08;9.20;;;6.90;;
70576;SDS011;58138;43.138;24.702;2023-04-06T09:55:43;8.00;;;6.75;;
70576;SDS011;58138;43.138;24.702;2023-04-06T09:58:16;12.55;;;7.97;;
70576;SDS011;58138;43.138;24.702;2023-04-06T10:00:53;10.73;;;5.70;;
70576;SDS011;58138;43.138;24.702;2023-04-06T10:06:21;9.00;;;6.05;;
70576;SDS011;58138;43.138;24.702;2023-04-06T10:08:48;9.63;;;5.95;;
70576;SDS011;58138;43.138;24.702;2023-04-06T10:11:15;8.15;;;5.55;;
70576;SDS011;58138;43.138;24.702;2023-04-06T10:13:41;7.45;;;5.30;;
70576;SDS011;58138;43.138;24.702;2023-04-06T10:16:08;7.88;;;6.18;;
70576;SDS011;58138;43.138;24.702;2023-04-06T10:18:34;6.07;;;4.85;;
70576;SDS011;58138;43.138;24.702;2023-04-06T10:21:09;7.32;;;5.03;;
70576;SDS011;58138;43.138;24.702;2023-04-06T10:26:13;9.63;;;6.28;;
70576;SDS011;58138;43.138;24.702;2023-04-06T10:28:41;7.60;;;5.43;;
70576;SDS011;58138;43.138;24.702;2023-04-06T10:31:08;7.35;;;5.75;;
70576;SDS011;58138;43.138;24.702;2023-04-06T10:33:33;9.70;;;4.97;;
70576;SDS011;58138;43.138;24.702;2023-04-06T10:36:09;9.52;;;5.88;;
70576;SDS011;58138;43.138;24.702;2023-04-06T10:38:36;8.70;;;6.78;;
70576;SDS011;58138;43.138;24.702;2023-04-06T10:41:03;6.20;;;3.83;;
70576;SDS011;58138;43.138;24.702;2023-04-06T10:43:32;9.73;;;6.10;;
70576;SDS011;58138;43.138;24.702;2023-04-06T10:46:00;6.72;;;4.95;;
70576;SDS011;58138;43.138;24.702;2023-04-06T10:48:37;8.60;;;6.32;;
70576;SDS011;58138;43.138;24.702;2023-04-06T10:51:14;7.80;;;4.25;;
70576;SDS011;58138;43.138;24.702;2023-04-06T10:53:45;6.53;;;4.80;;
70576;SDS011;58138;43.138;24.702;2023-04-06T10:56:15;7.78;;;5.05;;
70576;SDS011;58138;43.138;24.702;2023-04-06T10:58:45;8.05;;;5.40;;
70576;SDS011;58138;43.138;24.702;2023-04-06T11:01:11;5.60;;;4.57;;
70576;SDS011;58138;43.138;24.702;2023-04-06T11:03:44;7.20;;;4.93;;
70576;SDS011;58138;43.138;24.702;2023-04-06T11:06:10;6.28;;;4.07;;
70576;SDS011;58138;43.138;24.702;2023-04-06T11:08:43;6.75;;;4.97;;
70576;SDS011;58138;43.138;24.702;2023-04-06T11:11:11;5.97;;;4.80;;
70576;SDS011;58138;43.138;24.702;2023-04-06T11:13:44;7.15;;;4.97;;
70576;SDS011;58138;43.138;24.702;2023-04-06T11:18:49;8.82;;;5.22;;
70576;SDS011;58138;43.138;24.702;2023-04-06T11:21:37;8.10;;;4.80;;
70576;SDS011;58138;43.138;24.702;2023-04-06T11:26:43;6.32;;;5.18;;
70576;SDS011;58138;43.138;24.702;2023-04-06T11:29:09;9.15;;;5.40;;
70576;SDS011;58138;43.138;24.702;2023-04-06T11:31:39;7.65;;;5.32;;
70576;SDS011;58138;43.138;24.702;2023-04-06T11:34:13;7.10;;;4.72;;
70576;SDS011;58138;43.138;24.702;2023-04-06T11:36:46;3.20;;;2.08;;
70576;SDS011;58138;43.138;24.702;2023-04-06T11:39:13;6.90;;;4.90;;
70576;SDS011;58138;43.138;24.702;2023-04-06T11:41:39;7.38;;;4.70;;
70576;SDS011;58138;43.138;24.702;2023-04-06T11:44:05;9.00;;;6.00;;
70576;SDS011;58138;43.138;24.702;2023-04-06T11:46:31;5.68;;;4.88;;
70576;SDS011;58138;43.138;24.702;2023-04-06T11:49:00;5.25;;;4.68;;
70576;SDS011;58138;43.138;24.702;2023-04-06T11:51:26;6.72;;;5.80;;
70576;SDS011;58138;43.138;24.702;2023-04-06T11:53:52;8.70;;;5.57;;
70576;SDS011;58138;43.138;24.702;2023-04-06T11:56:25;8.20;;;5.85;;
70576;SDS011;58138;43.138;24.702;2023-04-06T11:58:52;9.98;;;6.13;;
70576;SDS011;58138;43.138;24.702;2023-04-06T12:01:19;7.53;;;5.15;;
70576;SDS011;58138;43.138;24.702;2023-04-06T12:03:45;7.63;;;5.18;;
70576;SDS011;58138;43.138;24.702;2023-04-06T12:06:10;6.60;;;4.80;;
70576;SDS011;58138;43.138;24.702;2023-04-06T12:08:36;8.07;;;5.53;;
70576;SDS011;58138;43.138;24.702;2023-04-06T12:11:02;6.13;;;4.85;;
70576;SDS011;58138;43.138;24.702;2023-04-06T12:13:28;6.13;;;5.15;;
70576;SDS011;58138;43.138;24.702;2023-04-06T12:15:53;6.70;;;5.50;;
70576;SDS011;58138;43.138;24.702;2023-04-06T12:18:19;7.07;;;5.22;;
70576;SDS011;58138;43.138;24.702;2023-04-06T12:20:45;10.98;;;8.57;;
70576;SDS011;58138;43.138;24.702;2023-04-06T12:23:10;9.45;;;6.40;;
70576;SDS011;58138;43.138;24.702;2023-04-06T12:25:38;6.45;;;5.47;;
70576;SDS011;58138;43.138;24.702;2023-04-06T12:28:04;6.95;;;5.60;;
70576;SDS011;58138;43.138;24.702;2023-04-06T12:30:30;7.25;;;5.50;;
70576;SDS011;58138;43.138;24.702;2023-04-06T12:32:57;16.23;;;6.55;;
70576;SDS011;58138;43.138;24.702;2023-04-06T12:35:22;12.57;;;7.95;;
70576;SDS011;58138;43.138;24.702;2023-04-06T12:37:48;8.90;;;6.05;;
70576;SDS011;58138;43.138;24.702;2023-04-06T12:40:13;8.70;;;5.68;;
70576;SDS011;58138;43.138;24.702;2023-04-06T12:42:40;12.10;;;7.53;;
70576;SDS011;58138;43.138;24.702;2023-04-06T12:45:07;9.02;;;5.72;;
70576;SDS011;58138;43.138;24.702;2023-04-06T12:47:33;10.05;;;6.45;;
70576;SDS011;58138;43.138;24.702;2023-04-06T12:50:00;9.85;;;7.18;;
70576;SDS011;58138;43.138;24.702;2023-04-06T12:55:34;6.35;;;5.00;;
70576;SDS011;58138;43.138;24.702;2023-04-06T12:58:00;8.95;;;5.35;;
70576;SDS011;58138;43.138;24.702;2023-04-06T13:00:26;3.92;;;3.28;;
70576;SDS011;58138;43.138;24.702;2023-04-06T13:02:52;6.18;;;5.57;;
70576;SDS011;58138;43.138;24.702;2023-04-06T13:05:17;6.03;;;3.95;;
70576;SDS011;58138;43.138;24.702;2023-04-06T13:07:44;9.43;;;5.78;;
70576;SDS011;58138;43.138;24.702;2023-04-06T13:10:10;6.88;;;4.95;;
70576;SDS011;58138;43.138;24.702;2023-04-06T13:12:36;8.73;;;6.65;;
70576;SDS011;58138;43.138;24.702;2023-04-06T13:15:01;10.52;;;6.22;;
70576;SDS011;58138;43.138;24.702;2023-04-06T13:17:27;9.32;;;7.32;;
70576;SDS011;58138;43.138;24.702;2023-04-06T13:19:53;9.73;;;5.80;;
70576;SDS011;58138;43.138;24.702;2023-04-06T13:22:18;11.80;;;6.10;;
70576;SDS011;58138;43.138;24.702;2023-04-06T13:24:44;8.85;;;5.47;;
70576;SDS011;58138;43.138;24.702;2023-04-06T13:27:10;9.70;;;6.00;;
70576;SDS011;58138;43.138;24.702;2023-04-06T13:29:36;8.52;;;7.03;;
70576;SDS011;58138;43.138;24.702;2023-04-06T13:32:02;7.05;;;5.32;;
70576;SDS011;58138;43.138;24.702;2023-04-06T13:34:28;8.23;;;6.07;;
70576;SDS011;58138;43.138;24.702;2023-04-06T13:36:53;8.18;;;6.93;;
70576;SDS011;58138;43.138;24.702;2023-04-06T13:39:31;9.38;;;7.07;;
70576;SDS011;58138;43.138;24.702;2023-04-06T13:41:57;11.85;;;6.90;;
70576;SDS011;58138;43.138;24.702;2023-04-06T13:44:23;6.70;;;6.00;;
70576;SDS011;58138;43.138;24.702;2023-04-06T13:46:48;8.55;;;6.88;;
70576;SDS011;58138;43.138;24.702;2023-04-06T13:49:14;10.15;;;7.95;;
70576;SDS011;58138;43.138;24.702;2023-04-06T13:51:40;8.25;;;6.00;;
70576;SDS011;58138;43.138;24.702;2023-04-06T13:54:07;10.93;;;8.63;;
70576;SDS011;58138;43.138;24.702;2023-04-06T13:56:32;7.97;;;7.05;;
70576;SDS011;58138;43.138;24.702;2023-04-06T13:58:58;8.45;;;6.57;;
70576;SDS011;58138;43.138;24.702;2023-04-06T14:01:23;11.13;;;8.07;;
70576;SDS011;58138;43.138;24.702;2023-04-06T14:03:51;8.95;;;7.32;;
70576;SDS011;58138;43.138;24.702;2023-04-06T14:06:17;10.73;;;7.32;;
70576;SDS011;58138;43.138;24.702;2023-04-06T14:08:42;8.07;;;7.22;;
70576;SDS011;58138;43.138;24.702;2023-04-06T14:11:12;17.77;;;11.10;;
70576;SDS011;58138;43.138;24.702;2023-04-06T14:13:38;12.40;;;8.43;;
70576;SDS011;58138;43.138;24.702;2023-04-06T14:16:04;9.80;;;7.90;;
70576;SDS011;58138;43.138;24.702;2023-04-06T14:18:30;11.35;;;7.60;;
70576;SDS011;58138;43.138;24.702;2023-04-06T14:20:56;9.25;;;8.00;;
70576;SDS011;58138;43.138;24.702;2023-04-06T14:23:22;12.25;;;7.57;;
70576;SDS011;58138;43.138;24.702;2023-04-06T14:25:50;11.23;;;7.38;;
70576;SDS011;58138;43.138;24.702;2023-04-06T14:28:16;9.63;;;7.22;;
70576;SDS011;58138;43.138;24.702;2023-04-06T14:30:42;12.55;;;8.27;;
70576;SDS011;58138;43.138;24.702;2023-04-06T14:33:08;10.60;;;7.05;;